Time;durP1;ratioP1;P1;durP2;ratioP2;P2;SDS_P1;SDS_P2;PMS_P1;PMS_P2;Temp;Humidity;BMP_temperature;BMP_pressure;BME280_temperature;BME280_humidity;BME280_pressure;Samples;Min_cycle;Max_cycle;Signal;HPM_P1;HPM_P2
2022/01/21 00:00:28;;;;;;;17.63;9.25;;;;;;;;;;4983873;28;20029;-69
2022/01/21 00:02:55;;;;;;;19.67;8.98;;;;;;;;;;4981639;28;20378;-70
2022/01/21 00:05:23;;;;;;;16.30;9.48;;;;;;;;;;4985102;28;20055;-69
2022/01/21 00:07:51;;;;;;;17.98;9.77;;;;;;;;;;4980939;28;20038;-69
2022/01/21 00:10:19;;;;;;;17.42;9.82;;;;;;;;;;4984760;28;20061;-69
2022/01/21 00:12:47;;;;;;;14.82;8.10;;;;;;;;;;4979448;28;20061;-69
2022/01/21 00:15:14;;;;;;;15.40;8.40;;;;;;;;;;4985102;28;20111;-69
2022/01/21 00:17:40;;;;;;;15.32;8.27;;;;;;;;;;4985693;28;20476;-69
2022/01/21 00:31:11;;;;;;;16.48;7.28;;;;;;;;;;4984035;28;20144;-68
2022/01/21 00:33:38;;;;;;;;;;;;;;;;;;4980932;28;20026;-68
2022/01/21 00:36:05;;;;;;;13.45;7.35;;;;;;;;;;4977817;28;19929;-68
2022/01/21 00:38:33;;;;;;;12.55;7.05;;;;;;;;;;4983073;28;20535;-69
2022/01/21 00:41:03;;;;;;;13.50;7.22;;;;;;;;;;4981327;28;20030;-68
2022/01/21 00:43:32;;;;;;;11.77;5.97;;;;;;;;;;4994443;28;20033;-68
2022/01/21 00:46:03;;;;;;;12.63;6.50;;;;;;;;;;4981365;28;20038;-69
2022/01/21 00:48:30;;;;;;;12.57;5.95;;;;;;;;;;4984834;28;20220;-69
2022/01/21 00:50:57;;;;;;;13.20;6.88;;;;;;;;;;4981705;28;20127;-67
2022/01/21 00:53:24;;;;;;;11.95;6.40;;;;;;;;;;4986841;28;20030;-68
2022/01/21 00:55:51;;;;;;;11.10;5.63;;;;;;;;;;4983611;28;20752;-68
2022/01/21 00:58:18;;;;;;;11.60;6.38;;;;;;;;;;4984929;28;20023;-69
2022/01/21 01:00:46;;;;;;;13.77;6.72;;;;;;;;;;4982370;28;20037;-69
2022/01/21 01:03:14;;;;;;;13.32;6.75;;;;;;;;;;4987088;28;20030;-68
2022/01/21 01:05:44;;;;;;;11.68;6.28;;;;;;;;;;4986576;28;20128;-68
2022/01/21 01:08:12;;;;;;;11.98;6.25;;;;;;;;;;4988827;28;20038;-69
2022/01/21 01:10:58;;;;;;;13.82;6.22;;;;;;;;;;4987196;28;20077;-69
2022/01/21 01:21:32;;;;;;;9.50;5.35;;;;;;;;;;4983720;28;20049;-68
2022/01/21 01:29:27;;;;;;;14.38;7.35;;;;;;;;;;4987126;28;20188;-69
2022/01/21 01:31:54;;;;;;;15.65;8.30;;;;;;;;;;4996641;28;20134;-69
2022/01/21 01:34:23;;;;;;;17.73;9.75;;;;;;;;;;4989491;28;20507;-69
2022/01/21 01:36:50;;;;;;;19.42;10.07;;;;;;;;;;4983756;28;20030;-70
2022/01/21 01:42:01;;;;;;;28.15;15.07;;;;;;;;;;4987665;28;20034;-69
2022/01/21 01:50:02;;;;;;;25.08;13.57;;;;;;;;;;4985159;28;20045;-69
2022/01/21 01:52:28;;;;;;;19.98;10.93;;;;;;;;;;4990403;28;20588;-69
2022/01/21 01:54:57;;;;;;;14.25;7.40;;;;;;;;;;4987914;28;20083;-69
2022/01/21 01:57:24;;;;;;;12.63;6.10;;;;;;;;;;4989756;28;20084;-69
2022/01/21 01:59:52;;;;;;;11.05;4.72;;;;;;;;;;4972274;28;20068;-69
2022/01/21 02:02:20;;;;;;;9.30;4.43;;;;;;;;;;4976017;28;21273;-69
2022/01/21 02:04:49;;;;;;;8.65;3.85;;;;;;;;;;4992900;28;20029;-69
2022/01/21 02:07:15;;;;;;;9.55;4.20;;;;;;;;;;4989571;28;20037;-69
2022/01/21 02:09:43;;;;;;;8.52;3.88;;;;;;;;;;4990143;28;20037;-69
2022/01/21 02:12:11;;;;;;;8.27;3.65;;;;;;;;;;5005667;28;20042;-69
2022/01/21 02:14:47;;;;;;;8.93;4.00;;;;;;;;;;5002831;28;20444;-69
2022/01/21 02:21:27;;;;;;;8.82;3.70;;;;;;;;;;4985283;28;20615;-69
2022/01/21 02:22:48;;;;;;;8.38;3.65;;;;;;;;;;4986851;28;20057;-69
2022/01/21 02:25:18;;;;;;;8.23;3.28;;;;;;;;;;4991285;28;20397;-69
2022/01/21 02:27:47;;;;;;;8.85;3.47;;;;;;;;;;4987797;28;20065;-69
2022/01/21 02:30:18;;;;;;;8.27;3.50;;;;;;;;;;4991522;28;20033;-69
2022/01/21 02:32:53;;;;;;;8.90;3.42;;;;;;;;;;4989998;28;20091;-69
2022/01/21 02:35:20;;;;;;;9.55;3.58;;;;;;;;;;4987312;28;20026;-69
2022/01/21 02:37:46;;;;;;;;;;;;;;;;;;4977617;28;20022;-69
2022/01/21 02:40:13;;;;;;;8.55;3.50;;;;;;;;;;4974290;28;19910;-69
2022/01/21 02:42:39;;;;;;;8.93;3.85;;;;;;;;;;4976701;28;20710;-69
2022/01/21 02:45:06;;;;;;;8.65;3.75;;;;;;;;;;4973014;28;20042;-68
2022/01/21 02:47:33;;;;;;;8.43;3.33;;;;;;;;;;4976399;28;20120;-68
2022/01/21 02:49:59;;;;;;;10.18;3.88;;;;;;;;;;4971581;28;20041;-69
2022/01/21 02:52:28;;;;;;;9.85;4.05;;;;;;;;;;4989522;28;20069;-68
2022/01/21 02:54:55;;;;;;;9.68;4.00;;;;;;;;;;4972658;28;20057;-68
2022/01/21 02:57:21;;;;;;;9.75;4.28;;;;;;;;;;4976069;28;20021;-68
2022/01/21 02:59:49;;;;;;;9.35;3.90;;;;;;;;;;4971272;28;20028;-69
2022/01/21 03:02:15;;;;;;;8.93;3.78;;;;;;;;;;4973867;28;20050;-68
2022/01/21 03:05:03;;;;;;;;;;;;;;;;;;4977886;28;20112;-68
2022/01/21 03:07:29;;;;;;;8.98;3.53;;;;;;;;;;4978055;28;19916;-68
2022/01/21 03:09:55;;;;;;;8.20;3.20;;;;;;;;;;4972476;28;20056;-69
2022/01/21 03:12:21;;;;;;;10.70;4.00;;;;;;;;;;4971529;28;20457;-69
2022/01/21 03:14:48;;;;;;;9.25;3.53;;;;;;;;;;4978707;28;20483;-68
2022/01/21 03:17:14;;;;;;;9.85;3.70;;;;;;;;;;4989960;28;20465;-68
2022/01/21 03:19:40;;;;;;;9.10;3.65;;;;;;;;;;4990268;28;20053;-68
2022/01/21 03:22:06;;;;;;;8.85;3.80;;;;;;;;;;4998923;28;20505;-68
2022/01/21 03:24:33;;;;;;;8.43;3.80;;;;;;;;;;4993438;28;20569;-68
2022/01/21 03:26:59;;;;;;;9.52;3.47;;;;;;;;;;4983468;28;20068;-68
2022/01/21 03:29:25;;;;;;;7.70;3.05;;;;;;;;;;4988682;28;20040;-68
2022/01/21 03:31:51;;;;;;;9.15;3.50;;;;;;;;;;4981374;28;20038;-68
2022/01/21 03:34:17;;;;;;;8.90;3.33;;;;;;;;;;4992465;28;20112;-69
2022/01/21 03:36:44;;;;;;;9.60;3.90;;;;;;;;;;4989596;28;20029;-69
2022/01/21 03:39:10;;;;;;;9.35;3.63;;;;;;;;;;4981955;28;20831;-68
2022/01/21 03:41:36;;;;;;;9.13;3.42;;;;;;;;;;4986853;28;20042;-69
2022/01/21 03:44:02;;;;;;;7.28;2.90;;;;;;;;;;4984391;28;20069;-69
2022/01/21 03:46:29;;;;;;;8.48;3.10;;;;;;;;;;4989315;28;20030;-68
2022/01/21 03:48:56;;;;;;;7.05;2.70;;;;;;;;;;4987357;28;20053;-68
2022/01/21 03:51:23;;;;;;;8.27;3.05;;;;;;;;;;4993050;28;20053;-68
2022/01/21 03:53:52;;;;;;;8.68;3.03;;;;;;;;;;4985524;28;20034;-68
2022/01/21 03:56:19;;;;;;;7.93;3.20;;;;;;;;;;4987067;28;20026;-68
2022/01/21 03:58:46;;;;;;;7.75;2.90;;;;;;;;;;4982182;28;20061;-68
2022/01/21 04:01:14;;;;;;;7.60;2.97;;;;;;;;;;4989287;28;20092;-68
2022/01/21 04:03:41;;;;;;;7.72;2.70;;;;;;;;;;4986265;28;20382;-68
2022/01/21 04:06:07;;;;;;;8.57;3.30;;;;;;;;;;4983636;28;20099;-69
2022/01/21 04:08:36;;;;;;;7.07;2.90;;;;;;;;;;4988380;28;20056;-69
2022/01/21 04:11:03;;;;;;;9.20;3.40;;;;;;;;;;4984015;28;20038;-69
2022/01/21 04:13:30;;;;;;;8.13;3.05;;;;;;;;;;4988219;28;20125;-69
2022/01/21 04:15:58;;;;;;;7.82;3.00;;;;;;;;;;4983434;28;20030;-68
2022/01/21 04:18:26;;;;;;;8.75;3.03;;;;;;;;;;4988060;28;20031;-69
2022/01/21 04:20:53;;;;;;;9.75;2.92;;;;;;;;;;4985254;28;20049;-68
2022/01/21 04:23:21;;;;;;;8.40;2.88;;;;;;;;;;4988969;28;20034;-68
2022/01/21 04:25:48;;;;;;;7.55;2.45;;;;;;;;;;4988020;28;20086;-68
2022/01/21 04:28:15;;;;;;;6.93;2.50;;;;;;;;;;4990418;28;20034;-69
2022/01/21 04:30:42;;;;;;;7.20;2.38;;;;;;;;;;4991328;28;20112;-69
2022/01/21 04:33:10;;;;;;;6.32;2.40;;;;;;;;;;5006069;28;20042;-69
2022/01/21 04:35:37;;;;;;;6.53;2.40;;;;;;;;;;4988379;28;20732;-69
2022/01/21 04:38:06;;;;;;;7.60;2.70;;;;;;;;;;4988831;28;20040;-69
2022/01/21 04:40:43;;;;;;;7.72;2.42;;;;;;;;;;4993533;28;20060;-70
2022/01/21 04:48:39;;;;;;;7.10;2.50;;;;;;;;;;4996093;28;20524;-68
2022/01/21 04:51:18;;;;;;;8.60;2.63;;;;;;;;;;4988138;28;20482;-69
2022/01/21 04:53:46;;;;;;;8.00;2.67;;;;;;;;;;4987580;28;20038;-68
2022/01/21 04:56:14;;;;;;;8.60;2.75;;;;;;;;;;4995537;28;20028;-68
2022/01/21 04:58:41;;;;;;;7.10;2.40;;;;;;;;;;4990247;28;20060;-68
2022/01/21 05:01:09;;;;;;;6.68;2.40;;;;;;;;;;4996074;28;20041;-68
2022/01/21 05:03:38;;;;;;;6.95;2.55;;;;;;;;;;4993422;28;20495;-68
2022/01/21 05:06:06;;;;;;;5.95;2.00;;;;;;;;;;4991579;28;20037;-68
2022/01/21 05:08:52;;;;;;;7.28;2.20;;;;;;;;;;4996178;28;20033;-68
2022/01/21 05:11:22;;;;;;;7.18;2.13;;;;;;;;;;4992763;28;20034;-67
2022/01/21 05:13:59;;;;;;;6.43;2.03;;;;;;;;;;4991374;28;20421;-68
2022/01/21 05:18:53;;;;;;;8.00;2.38;;;;;;;;;;4991876;28;20041;-68
2022/01/21 05:21:22;;;;;;;7.07;2.47;;;;;;;;;;4991978;28;20034;-68
2022/01/21 05:23:48;;;;;;;5.25;2.03;;;;;;;;;;4991949;28;20025;-68
2022/01/21 05:26:15;;;;;;;6.38;2.20;;;;;;;;;;4994311;28;20029;-68
2022/01/21 05:28:43;;;;;;;6.50;2.10;;;;;;;;;;4994183;28;20030;-70
2022/01/21 05:31:10;;;;;;;6.18;2.00;;;;;;;;;;4993896;28;20088;-68
2022/01/21 05:33:36;;;;;;;6.18;2.30;;;;;;;;;;4990340;28;20448;-68
2022/01/21 05:36:03;;;;;;;7.93;2.67;;;;;;;;;;4991762;28;20061;-68
2022/01/21 05:38:29;;;;;;;7.82;2.80;;;;;;;;;;4990326;28;20076;-69
2022/01/21 05:40:58;;;;;;;8.23;2.60;;;;;;;;;;4989020;28;20121;-69
2022/01/21 05:43:24;;;;;;;5.95;2.33;;;;;;;;;;4993787;28;20091;-69
2022/01/21 05:48:35;;;;;;;7.22;2.72;;;;;;;;;;4993640;28;20692;-69
2022/01/21 05:51:03;;;;;;;7.03;2.45;;;;;;;;;;4985122;28;20111;-69
2022/01/21 05:53:30;;;;;;;6.88;2.70;;;;;;;;;;4991532;28;20034;-69
2022/01/21 05:56:01;;;;;;;7.65;2.63;;;;;;;;;;4988929;28;20041;-68
2022/01/21 05:58:28;;;;;;;6.75;2.63;;;;;;;;;;4996589;28;20057;-69
2022/01/21 06:00:54;;;;;;;6.32;2.83;;;;;;;;;;4989262;28;20057;-70
2022/01/21 06:03:21;;;;;;;7.22;2.80;;;;;;;;;;4991397;28;20052;-70
2022/01/21 06:05:48;;;;;;;8.40;3.08;;;;;;;;;;4990546;28;20041;-69
2022/01/21 06:08:15;;;;;;;6.70;2.72;;;;;;;;;;4990115;28;20064;-68
2022/01/21 06:10:41;;;;;;;6.97;2.38;;;;;;;;;;4988555;28;20084;-70
2022/01/21 06:13:08;;;;;;;8.27;3.63;;;;;;;;;;4992689;28;20022;-69
2022/01/21 06:15:35;;;;;;;7.53;3.40;;;;;;;;;;4991908;28;20117;-69
2022/01/21 06:18:02;;;;;;;8.02;3.47;;;;;;;;;;4985746;28;20022;-69
2022/01/21 06:20:30;;;;;;;9.90;3.45;;;;;;;;;;4990240;28;20042;-69
2022/01/21 06:22:57;;;;;;;8.32;3.25;;;;;;;;;;4987675;28;20038;-67
2022/01/21 06:25:26;;;;;;;6.60;3.00;;;;;;;;;;4993121;28;20034;-69
2022/01/21 06:27:53;;;;;;;7.03;2.78;;;;;;;;;;4987560;28;20448;-71
2022/01/21 06:30:21;;;;;;;7.88;3.20;;;;;;;;;;4988329;28;20041;-70
2022/01/21 06:32:47;;;;;;;7.28;2.85;;;;;;;;;;4990039;28;20103;-70
2022/01/21 06:35:14;;;;;;;7.82;2.90;;;;;;;;;;4990784;28;20069;-69
2022/01/21 06:37:40;;;;;;;7.40;3.05;;;;;;;;;;4983726;28;20060;-70
2022/01/21 06:40:06;;;;;;;;;;;;;;;;;;4987753;28;20033;-69
2022/01/21 06:42:33;;;;;;;8.88;3.85;;;;;;;;;;4993671;28;19945;-69
2022/01/21 06:45:01;;;;;;;8.93;3.70;;;;;;;;;;4986808;28;20018;-70
2022/01/21 06:47:28;;;;;;;9.80;4.35;;;;;;;;;;4987641;28;20489;-70
2022/01/21 06:49:58;;;;;;;9.50;3.97;;;;;;;;;;4989670;28;20033;-69
2022/01/21 06:52:27;;;;;;;9.85;4.05;;;;;;;;;;4993018;28;20044;-69
2022/01/21 06:54:55;;;;;;;9.38;4.07;;;;;;;;;;4990426;28;20109;-70
2022/01/21 06:57:22;;;;;;;10.13;4.78;;;;;;;;;;4987492;28;20050;-69
2022/01/21 06:59:49;;;;;;;10.23;4.72;;;;;;;;;;4987461;28;20037;-68
2022/01/21 07:02:18;;;;;;;10.38;4.40;;;;;;;;;;4992687;28;20042;-69
2022/01/21 07:04:46;;;;;;;11.30;5.07;;;;;;;;;;4990551;28;20480;-68
2022/01/21 07:07:13;;;;;;;11.30;5.32;;;;;;;;;;4990413;28;20138;-69
2022/01/21 07:09:41;;;;;;;10.25;5.20;;;;;;;;;;4986432;28;20507;-69
2022/01/21 07:12:09;;;;;;;12.10;5.57;;;;;;;;;;4992370;28;20034;-69
2022/01/21 07:14:36;;;;;;;10.98;5.10;;;;;;;;;;4991626;28;20034;-70
2022/01/21 07:17:03;;;;;;;13.32;5.78;;;;;;;;;;4985785;28;20057;-69
2022/01/21 07:19:30;;;;;;;13.18;4.88;;;;;;;;;;5004852;28;20045;-69
2022/01/21 07:21:59;;;;;;;10.35;5.13;;;;;;;;;;4983389;28;20046;-70
2022/01/21 07:24:25;;;;;;;11.23;5.03;;;;;;;;;;4990943;28;20752;-69
2022/01/21 07:26:52;;;;;;;12.90;5.03;;;;;;;;;;4986278;28;20090;-69
2022/01/21 07:29:21;;;;;;;10.25;5.03;;;;;;;;;;4994525;28;20030;-69
2022/01/21 07:31:53;;;;;;;9.98;4.90;;;;;;;;;;4989086;28;20041;-70
2022/01/21 07:34:28;;;;;;;11.10;5.18;;;;;;;;;;4990552;28;20021;-69
2022/01/21 07:36:56;;;;;;;11.95;4.82;;;;;;;;;;4988638;28;20148;-71
2022/01/21 07:39:23;;;;;;;9.60;4.32;;;;;;;;;;4970254;28;20033;-69
2022/01/21 07:41:51;;;;;;;12.02;4.40;;;;;;;;;;4981029;28;20120;-69
2022/01/21 07:44:18;;;;;;;11.15;4.90;;;;;;;;;;4991408;28;20045;-68
2022/01/21 07:46:45;;;;;;;14.15;5.20;;;;;;;;;;4966713;28;20034;-69
2022/01/21 07:49:12;;;;;;;11.23;4.78;;;;;;;;;;4989368;28;20025;-69
2022/01/21 07:51:39;;;;;;;14.38;5.20;;;;;;;;;;4992078;28;20069;-70
2022/01/21 07:54:07;;;;;;;11.13;4.68;;;;;;;;;;4987201;28;20485;-69
2022/01/21 07:56:36;;;;;;;11.10;5.00;;;;;;;;;;4991585;28;20033;-69
2022/01/21 07:59:07;;;;;;;11.77;5.18;;;;;;;;;;4986217;28;20035;-69
2022/01/21 08:01:36;;;;;;;12.57;4.80;;;;;;;;;;4985143;28;20141;-70
2022/01/21 08:04:02;;;;;;;11.57;5.07;;;;;;;;;;4986983;28;20200;-69
2022/01/21 08:06:29;;;;;;;11.23;5.05;;;;;;;;;;4993452;28;20018;-71
2022/01/21 08:08:57;;;;;;;11.70;5.35;;;;;;;;;;4987774;28;20062;-69
2022/01/21 08:11:23;;;;;;;12.38;5.82;;;;;;;;;;4993707;28;20606;-69
2022/01/21 08:13:50;;;;;;;11.35;5.43;;;;;;;;;;4987914;28;20028;-70
2022/01/21 08:16:17;;;;;;;11.10;5.07;;;;;;;;;;4987422;28;20022;-69
2022/01/21 08:18:45;;;;;;;9.60;4.55;;;;;;;;;;4984648;28;20076;-69
2022/01/21 08:21:18;;;;;;;11.85;4.57;;;;;;;;;;4990659;28;20100;-70
2022/01/21 08:23:55;;;;;;;10.25;4.05;;;;;;;;;;4984038;28;20097;-71
2022/01/21 08:26:28;;;;;;;9.10;3.85;;;;;;;;;;4989358;28;20041;-70
2022/01/21 08:28:56;;;;;;;10.23;3.97;;;;;;;;;;4988101;28;20030;-71
2022/01/21 08:31:24;;;;;;;9.93;4.50;;;;;;;;;;4990964;28;20030;-70
2022/01/21 08:33:53;;;;;;;10.57;4.18;;;;;;;;;;4991158;28;20037;-70
2022/01/21 08:36:20;;;;;;;10.85;4.93;;;;;;;;;;4987007;28;20134;-71
2022/01/21 08:38:46;;;;;;;;;;;;;;;;;;4987072;28;20033;-69
2022/01/21 08:41:13;;;;;;;9.68;4.45;;;;;;;;;;4989215;28;19932;-70
2022/01/21 08:43:40;;;;;;;10.00;4.38;;;;;;;;;;4986205;28;20030;-69
2022/01/21 08:46:07;;;;;;;12.40;5.07;;;;;;;;;;4985803;28;20057;-70
2022/01/21 08:48:35;;;;;;;12.00;6.10;;;;;;;;;;4990546;28;20092;-70
2022/01/21 08:51:08;;;;;;;13.20;6.80;;;;;;;;;;4982830;28;20056;-70
2022/01/21 08:53:36;;;;;;;13.52;7.00;;;;;;;;;;4988225;28;20783;-70
2022/01/21 08:56:05;;;;;;;12.23;6.78;;;;;;;;;;4985252;28;21989;-70
2022/01/21 08:58:31;;;;;;;13.00;6.65;;;;;;;;;;4990338;28;20057;-70
2022/01/21 09:00:57;;;;;;;;;;;;;;;;;;4984394;28;20728;-71
2022/01/21 09:03:24;;;;;;;12.38;6.45;;;;;;;;;;4989294;28;19957;-70
2022/01/21 09:05:51;;;;;;;15.98;7.38;;;;;;;;;;4986651;28;20552;-70
2022/01/21 09:08:22;;;;;;;15.88;7.70;;;;;;;;;;4991108;28;20499;-69
2022/01/21 09:10:54;;;;;;;17.67;8.48;;;;;;;;;;4982153;28;20042;-70
2022/01/21 09:13:22;;;;;;;18.65;10.50;;;;;;;;;;4993165;28;20480;-70
2022/01/21 09:15:49;;;;;;;33.85;15.02;;;;;;;;;;4990900;28;20036;-70
2022/01/21 09:18:19;;;;;;;34.63;16.92;;;;;;;;;;4994812;28;20029;-71
2022/01/21 09:20:45;;;;;;;44.50;22.00;;;;;;;;;;4990609;28;20049;-70
2022/01/21 09:23:13;;;;;;;49.88;25.40;;;;;;;;;;4991968;28;20046;-71
2022/01/21 09:25:41;;;;;;;56.75;26.55;;;;;;;;;;4991759;28;20184;-71
2022/01/21 09:28:08;;;;;;;57.75;27.25;;;;;;;;;;4990281;28;20111;-71
2022/01/21 09:30:36;;;;;;;49.55;25.58;;;;;;;;;;4994611;28;20042;-71
2022/01/21 09:33:02;;;;;;;49.67;24.33;;;;;;;;;;4990317;28;22244;-71
2022/01/21 09:35:29;;;;;;;40.45;20.45;;;;;;;;;;4990875;28;20036;-71
2022/01/21 09:37:56;;;;;;;35.60;18.23;;;;;;;;;;4985799;28;20092;-71
2022/01/21 09:40:29;;;;;;;31.27;17.92;;;;;;;;;;4991713;28;20018;-71
2022/01/21 09:42:58;;;;;;;26.33;13.80;;;;;;;;;;4991432;28;20033;-71
2022/01/21 09:45:25;;;;;;;19.88;10.75;;;;;;;;;;4991448;28;20034;-70
2022/01/21 09:47:54;;;;;;;16.83;8.88;;;;;;;;;;4987901;28;20029;-70
2022/01/21 09:50:22;;;;;;;14.13;8.07;;;;;;;;;;4991101;28;20072;-70
2022/01/21 09:52:50;;;;;;;16.38;8.90;;;;;;;;;;4992098;28;20078;-70
2022/01/21 09:55:20;;;;;;;18.45;9.25;;;;;;;;;;4990188;28;20038;-70
2022/01/21 09:57:48;;;;;;;16.30;8.95;;;;;;;;;;4987303;28;20594;-69
2022/01/21 10:00:17;;;;;;;15.75;8.25;;;;;;;;;;4992581;28;20030;-69
2022/01/21 10:02:45;;;;;;;14.82;6.40;;;;;;;;;;4983085;28;20061;-70
2022/01/21 10:05:13;;;;;;;10.98;4.90;;;;;;;;;;4992194;28;20034;-70
2022/01/21 10:07:40;;;;;;;10.25;4.40;;;;;;;;;;4991965;28;20623;-71
2022/01/21 10:10:09;;;;;;;11.10;4.70;;;;;;;;;;4988610;28;20050;-71
2022/01/21 10:12:39;;;;;;;12.38;5.25;;;;;;;;;;4990826;28;20121;-70
2022/01/21 10:15:07;;;;;;;10.82;5.15;;;;;;;;;;4983583;28;20044;-70
2022/01/21 10:17:35;;;;;;;11.10;5.18;;;;;;;;;;4985035;28;20026;-70
2022/01/21 10:20:18;;;;;;;11.45;5.68;;;;;;;;;;4986639;28;20025;-70
2022/01/21 10:23:03;;;;;;;12.20;5.72;;;;;;;;;;4976648;28;20056;-70
2022/01/21 10:25:30;;;;;;;12.50;5.40;;;;;;;;;;4992937;28;20496;-70
2022/01/21 10:28:13;;;;;;;12.50;6.60;;;;;;;;;;4989202;28;20039;-71
2022/01/21 10:30:42;;;;;;;13.68;6.20;;;;;;;;;;4985876;28;20042;-69
2022/01/21 10:33:27;;;;;;;12.13;5.85;;;;;;;;;;4990689;28;20778;-69
2022/01/21 10:36:21;;;;;;;10.82;5.22;;;;;;;;;;4984714;28;20037;-70
2022/01/21 10:39:08;;;;;;;11.00;5.38;;;;;;;;;;4941566;28;20034;-70
2022/01/21 10:41:40;;;;;;;14.13;5.20;;;;;;;;;;4992053;28;20026;-69
2022/01/21 10:44:09;;;;;;;11.23;4.75;;;;;;;;;;4983708;28;20026;-70
2022/01/21 10:46:37;;;;;;;14.35;5.10;;;;;;;;;;4989383;28;20022;-70
2022/01/21 10:49:12;;;;;;;13.45;5.20;;;;;;;;;;4984554;28;20176;-70
2022/01/21 10:51:41;;;;;;;12.32;4.55;;;;;;;;;;4990567;28;20025;-69
2022/01/21 10:54:19;;;;;;;11.57;4.53;;;;;;;;;;4985097;28;20040;-69
2022/01/21 10:57:04;;;;;;;12.52;4.38;;;;;;;;;;4988505;28;20496;-71
2022/01/21 10:59:49;;;;;;;13.60;4.40;;;;;;;;;;4990590;28;20029;-69
2022/01/21 11:02:29;;;;;;;13.07;3.90;;;;;;;;;;4987260;28;20081;-70
2022/01/21 11:04:58;;;;;;;13.52;4.18;;;;;;;;;;4986251;28;20042;-69
2022/01/21 11:07:44;;;;;;;13.45;3.78;;;;;;;;;;4984029;28;20041;-70
2022/01/21 11:10:30;;;;;;;13.98;4.55;;;;;;;;;;4986604;28;20069;-69
2022/01/21 11:12:58;;;;;;;19.30;7.57;;;;;;;;;;4982592;28;20767;-70
2022/01/21 11:15:27;;;;;;;19.02;6.95;;;;;;;;;;4987790;28;20448;-70
2022/01/21 11:18:02;;;;;;;14.57;6.15;;;;;;;;;;4997897;28;20088;-69
2022/01/21 11:20:45;;;;;;;17.98;6.65;;;;;;;;;;4989432;28;20036;-69
2022/01/21 11:23:13;;;;;;;13.98;4.90;;;;;;;;;;4985709;28;20034;-69
2022/01/21 11:25:40;;;;;;;;;;;;;;;;;;4987460;28;20676;-70
2022/01/21 11:28:06;;;;;;;16.42;6.45;;;;;;;;;;4987770;28;19918;-70
2022/01/21 11:30:33;;;;;;;17.52;8.50;;;;;;;;;;4993017;28;20033;-70
2022/01/21 11:32:59;;;;;;;20.60;9.07;;;;;;;;;;4983286;28;20041;-69
2022/01/21 11:35:27;;;;;;;16.33;7.18;;;;;;;;;;4990188;28;20053;-69
2022/01/21 11:37:53;;;;;;;15.43;5.40;;;;;;;;;;4982246;28;20037;-69
2022/01/21 11:40:24;;;;;;;13.77;4.85;;;;;;;;;;4985804;28;20121;-69
2022/01/21 11:42:53;;;;;;;18.67;4.88;;;;;;;;;;4985461;28;20021;-69
2022/01/21 11:46:16;;;;;;;14.13;4.72;;;;;;;;;;4987563;28;20034;-69
2022/01/21 11:50:56;;;;;;;16.05;5.88;;;;;;;;;;4982420;28;20060;-71
2022/01/21 11:53:43;;;;;;;13.10;5.78;;;;;;;;;;4986871;28;20038;-68
2022/01/21 11:56:29;;;;;;;18.42;7.57;;;;;;;;;;4987618;28;20026;-69
2022/01/21 11:59:24;;;;;;;41.83;20.50;;;;;;;;;;4981511;28;20121;-69
2022/01/21 12:01:54;;;;;;;38.45;21.08;;;;;;;;;;4983729;28;20053;-70
2022/01/21 12:04:39;;;;;;;22.17;10.98;;;;;;;;;;4991415;28;20037;-74
2022/01/21 12:07:25;;;;;;;16.95;8.00;;;;;;;;;;4983347;28;20085;-70
2022/01/21 12:09:59;;;;;;;15.40;6.65;;;;;;;;;;4981981;28;20129;-71
2022/01/21 12:15:38;;;;;;;20.50;12.17;;;;;;;;;;4989970;28;20100;-70
2022/01/21 12:21:06;;;;;;;28.08;20.40;;;;;;;;;;4987819;28;20068;-70
2022/01/21 12:23:44;;;;;;;21.73;14.63;;;;;;;;;;4966540;28;20491;-70
2022/01/21 12:26:17;;;;;;;20.10;11.00;;;;;;;;;;4981496;28;20042;-70
2022/01/21 12:28:46;;;;;;;21.08;9.32;;;;;;;;;;4981258;28;20038;-70
2022/01/21 12:31:16;;;;;;;20.17;10.38;;;;;;;;;;4986179;28;20026;-70
2022/01/21 12:34:14;;;;;;;19.17;9.55;;;;;;;;;;4982771;28;20472;-69
2022/01/21 12:36:41;;;;;;;23.08;12.40;;;;;;;;;;4985150;28;20127;-70
2022/01/21 12:39:28;;;;;;;21.70;10.15;;;;;;;;;;4981083;28;20096;-70
2022/01/21 12:41:57;;;;;;;21.98;9.18;;;;;;;;;;4980474;28;20025;-70
2022/01/21 12:44:31;;;;;;;20.15;7.00;;;;;;;;;;4986487;28;20026;-70
2022/01/21 12:46:58;;;;;;;22.27;8.93;;;;;;;;;;4988456;28;20088;-69
2022/01/21 12:49:39;;;;;;;21.40;8.82;;;;;;;;;;4985104;28;20484;-69
2022/01/21 12:57:31;;;;;;;;;;;;;;;;;;4987620;28;20100;-69
2022/01/21 13:00:09;;;;;;;20.25;9.07;;;;;;;;;;4983600;28;19913;-70
2022/01/21 13:02:39;;;;;;;22.13;9.55;;;;;;;;;;4988182;28;20060;-70
2022/01/21 13:05:19;;;;;;;23.52;7.90;;;;;;;;;;4987259;28;20109;-70
2022/01/21 13:08:05;;;;;;;20.48;7.72;;;;;;;;;;4986108;28;20080;-70
2022/01/21 13:10:37;;;;;;;17.65;7.18;;;;;;;;;;4988044;28;20026;-72
2022/01/21 13:15:40;;;;;;;18.85;7.35;;;;;;;;;;4982659;28;20748;-69
2022/01/21 13:18:08;;;;;;;15.63;7.10;;;;;;;;;;4982464;28;20424;-69
2022/01/21 13:20:37;;;;;;;20.30;7.85;;;;;;;;;;4985641;28;20026;-69
2022/01/21 13:23:04;;;;;;;17.05;6.90;;;;;;;;;;4982160;28;21395;-70
2022/01/21 13:25:32;;;;;;;18.92;7.68;;;;;;;;;;4988638;28;20134;-69
2022/01/21 13:28:04;;;;;;;19.30;7.40;;;;;;;;;;4979964;28;20044;-70
2022/01/21 13:30:33;;;;;;;16.00;6.40;;;;;;;;;;4983834;28;20088;-69
2022/01/21 13:33:13;;;;;;;15.18;6.13;;;;;;;;;;4982322;28;20104;-69
2022/01/21 13:35:47;;;;;;;17.13;6.72;;;;;;;;;;4986662;28;20148;-70
2022/01/21 13:38:16;;;;;;;16.95;6.30;;;;;;;;;;4985486;28;20030;-72
2022/01/21 13:40:45;;;;;;;14.02;5.93;;;;;;;;;;4982648;28;20026;-69
2022/01/21 13:43:18;;;;;;;16.90;5.72;;;;;;;;;;4985715;28;20029;-71
2022/01/21 13:45:59;;;;;;;16.63;6.53;;;;;;;;;;4984393;28;20045;-69
2022/01/21 13:48:26;;;;;;;15.60;5.72;;;;;;;;;;4986292;28;20393;-70
2022/01/21 13:50:54;;;;;;;13.45;4.90;;;;;;;;;;4984775;28;20018;-69
2022/01/21 13:53:27;;;;;;;15.55;5.90;;;;;;;;;;4999333;28;20604;-70
2022/01/21 13:56:02;;;;;;;13.63;5.00;;;;;;;;;;4982970;28;20037;-70
2022/01/21 13:58:32;;;;;;;15.70;5.25;;;;;;;;;;4986036;28;20026;-70
2022/01/21 14:00:59;;;;;;;15.85;5.18;;;;;;;;;;4967717;28;20484;-70
2022/01/21 14:03:28;;;;;;;15.13;5.30;;;;;;;;;;4985255;28;20054;-70
2022/01/21 14:06:05;;;;;;;14.57;5.82;;;;;;;;;;4981936;28;20893;-70
2022/01/21 14:08:34;;;;;;;13.73;5.72;;;;;;;;;;4980751;28;20042;-69
2022/01/21 14:11:04;;;;;;;20.00;11.65;;;;;;;;;;4978798;28;20025;-71
2022/01/21 14:13:33;;;;;;;23.85;12.18;;;;;;;;;;4982973;28;20137;-70
2022/01/21 14:16:03;;;;;;;25.23;11.20;;;;;;;;;;4984780;28;20857;-70
2022/01/21 14:18:34;;;;;;;23.10;12.55;;;;;;;;;;4985310;28;20152;-69
2022/01/21 14:21:10;;;;;;;23.92;10.82;;;;;;;;;;4981831;28;20033;-70
2022/01/21 14:23:41;;;;;;;21.90;10.88;;;;;;;;;;4992580;28;20048;-70
2022/01/21 14:26:11;;;;;;;26.23;12.02;;;;;;;;;;4983697;28;20108;-71
2022/01/21 14:28:47;;;;;;;25.23;13.63;;;;;;;;;;4991951;28;20601;-70
2022/01/21 14:31:33;;;;;;;21.87;10.17;;;;;;;;;;4992015;28;20492;-70
2022/01/21 14:34:01;;;;;;;19.95;7.30;;;;;;;;;;4986228;28;20058;-70
2022/01/21 14:36:28;;;;;;;15.02;6.68;;;;;;;;;;4986047;28;20038;-70
2022/01/21 14:39:08;;;;;;;14.90;6.35;;;;;;;;;;4983779;28;20191;-70
2022/01/21 14:41:38;;;;;;;14.05;5.00;;;;;;;;;;4983664;28;20088;-69
2022/01/21 14:44:04;;;;;;;15.15;4.63;;;;;;;;;;4982252;28;20512;-69
2022/01/21 14:46:31;;;;;;;13.25;4.00;;;;;;;;;;4985099;28;20030;-69
2022/01/21 14:48:58;;;;;;;13.73;4.22;;;;;;;;;;4976751;28;20030;-72
2022/01/21 14:51:32;;;;;;;15.23;5.18;;;;;;;;;;4980603;28;20484;-69
2022/01/21 14:54:11;;;;;;;13.75;4.53;;;;;;;;;;4980774;28;21240;-69
2022/01/21 14:56:37;;;;;;;12.27;4.00;;;;;;;;;;4984135;28;20145;-69
2022/01/21 14:59:15;;;;;;;12.95;3.78;;;;;;;;;;4978366;28;20864;-69
2022/01/21 15:02:09;;;;;;;15.73;4.45;;;;;;;;;;4982624;28;20033;-70
2022/01/21 15:04:37;;;;;;;13.57;3.92;;;;;;;;;;4982883;28;20179;-68
2022/01/21 15:07:14;;;;;;;13.27;3.72;;;;;;;;;;4979804;28;20045;-69
2022/01/21 15:09:49;;;;;;;11.73;3.72;;;;;;;;;;4978463;28;20026;-69
2022/01/21 15:15:31;;;;;;;14.57;4.10;;;;;;;;;;4981607;28;20069;-69
2022/01/21 15:17:57;;;;;;;13.52;4.00;;;;;;;;;;4976174;28;20060;-70
2022/01/21 15:20:31;;;;;;;11.43;3.47;;;;;;;;;;4982832;28;20030;-71
2022/01/21 15:22:58;;;;;;;15.98;5.25;;;;;;;;;;4977228;28;20627;-70
2022/01/21 15:25:24;;;;;;;16.80;5.65;;;;;;;;;;4979796;28;20061;-69
2022/01/21 15:27:50;;;;;;;15.02;5.25;;;;;;;;;;4979367;28;20029;-69
2022/01/21 15:30:17;;;;;;;12.88;4.70;;;;;;;;;;4982384;28;20040;-69
2022/01/21 15:32:44;;;;;;;14.55;4.85;;;;;;;;;;4979847;28;20036;-70
2022/01/21 15:35:10;;;;;;;16.20;4.85;;;;;;;;;;4981065;28;20104;-69
2022/01/21 15:37:37;;;;;;;12.52;4.80;;;;;;;;;;4984462;28;20042;-69
2022/01/21 15:40:04;;;;;;;13.48;4.30;;;;;;;;;;4978219;28;20036;-69
2022/01/21 15:42:30;;;;;;;16.83;5.65;;;;;;;;;;4979633;28;20034;-70
2022/01/21 15:44:57;;;;;;;15.18;5.00;;;;;;;;;;4978230;28;20076;-69
2022/01/21 15:47:24;;;;;;;15.23;5.32;;;;;;;;;;4984656;28;20022;-70
2022/01/21 15:49:51;;;;;;;13.27;4.82;;;;;;;;;;4979538;28;20087;-69
2022/01/21 15:52:17;;;;;;;14.05;5.15;;;;;;;;;;4981125;28;20484;-69
2022/01/21 15:54:43;;;;;;;15.10;5.35;;;;;;;;;;4973799;28;20026;-69
2022/01/21 15:57:09;;;;;;;13.85;5.25;;;;;;;;;;4978706;28;20025;-69